sensor_id;sensor_type;location;lat;lon;timestamp;P1;durP1;ratioP1;P2;durP2;ratioP2
20729;SDS011;10526;50.850;12.928;2023-02-28T00:03:44;16.92;;;6.70;;
20729;SDS011;10526;50.850;12.928;2023-02-28T00:08:06;16.75;;;6.82;;
20729;SDS011;10526;50.850;12.928;2023-02-28T00:12:29;15.88;;;6.45;;
20729;SDS011;10526;50.850;12.928;2023-02-28T00:16:51;17.35;;;6.47;;
20729;SDS011;10526;50.850;12.928;2023-02-28T00:21:13;15.18;;;6.60;;
20729;SDS011;10526;50.850;12.928;2023-02-28T00:25:36;14.07;;;6.53;;
20729;SDS011;10526;50.850;12.928;2023-02-28T00:29:58;15.70;;;6.10;;
20729;SDS011;10526;50.850;12.928;2023-02-28T00:34:21;15.13;;;6.82;;
20729;SDS011;10526;50.850;12.928;2023-02-28T00:38:43;14.25;;;6.25;;
20729;SDS011;10526;50.850;12.928;2023-02-28T00:43:05;12.45;;;6.38;;
20729;SDS011;10526;50.850;12.928;2023-02-28T00:47:27;16.40;;;7.40;;
20729;SDS011;10526;50.850;12.928;2023-02-28T00:51:49;12.93;;;5.88;;
20729;SDS011;10526;50.850;12.928;2023-02-28T00:56:13;14.57;;;6.28;;
20729;SDS011;10526;50.850;12.928;2023-02-28T01:00:35;14.10;;;6.32;;
20729;SDS011;10526;50.850;12.928;2023-02-28T01:04:57;14.23;;;6.63;;
20729;SDS011;10526;50.850;12.928;2023-02-28T01:09:19;16.00;;;6.65;;
20729;SDS011;10526;50.850;12.928;2023-02-28T01:13:41;13.63;;;5.70;;
20729;SDS011;10526;50.850;12.928;2023-02-28T01:18:06;13.30;;;5.90;;
20729;SDS011;10526;50.850;12.928;2023-02-28T01:22:28;15.70;;;6.63;;
20729;SDS011;10526;50.850;12.928;2023-02-28T01:26:50;16.67;;;6.70;;
20729;SDS011;10526;50.850;12.928;2023-02-28T01:31:14;17.65;;;5.90;;
20729;SDS011;10526;50.850;12.928;2023-02-28T01:35:37;14.40;;;6.55;;
20729;SDS011;10526;50.850;12.928;2023-02-28T01:39:59;15.35;;;6.47;;
20729;SDS011;10526;50.850;12.928;2023-02-28T01:49:27;15.23;;;6.93;;
20729;SDS011;10526;50.850;12.928;2023-02-28T01:53:55;15.27;;;6.53;;
20729;SDS011;10526;50.850;12.928;2023-02-28T01:58:22;16.23;;;7.10;;
20729;SDS011;10526;50.850;12.928;2023-02-28T02:02:46;16.95;;;7.50;;
20729;SDS011;10526;50.850;12.928;2023-02-28T02:07:12;18.73;;;6.57;;
20729;SDS011;10526;50.850;12.928;2023-02-28T02:11:39;13.25;;;6.90;;
20729;SDS011;10526;50.850;12.928;2023-02-28T02:16:14;15.23;;;7.07;;
20729;SDS011;10526;50.850;12.928;2023-02-28T02:26:31;17.30;;;7.63;;
20729;SDS011;10526;50.850;12.928;2023-02-28T02:31:25;16.27;;;7.60;;
20729;SDS011;10526;50.850;12.928;2023-02-28T02:36:28;16.63;;;8.05;;
20729;SDS011;10526;50.850;12.928;2023-02-28T02:50:17;17.27;;;7.60;;
20729;SDS011;10526;50.850;12.928;2023-02-28T02:54:47;21.60;;;10.68;;
20729;SDS011;10526;50.850;12.928;2023-02-28T02:59:18;17.02;;;8.30;;
20729;SDS011;10526;50.850;12.928;2023-02-28T03:03:45;19.45;;;8.50;;
20729;SDS011;10526;50.850;12.928;2023-02-28T03:08:07;20.55;;;8.85;;
20729;SDS011;10526;50.850;12.928;2023-02-28T03:12:37;22.10;;;8.80;;
20729;SDS011;10526;50.850;12.928;2023-02-28T03:27:24;17.83;;;9.05;;
20729;SDS011;10526;50.850;12.928;2023-02-28T03:32:27;17.90;;;8.68;;
20729;SDS011;10526;50.850;12.928;2023-02-28T03:36:57;19.20;;;9.75;;
20729;SDS011;10526;50.850;12.928;2023-02-28T03:41:38;19.38;;;8.75;;
20729;SDS011;10526;50.850;12.928;2023-02-28T03:46:34;17.75;;;9.25;;
20729;SDS011;10526;50.850;12.928;2023-02-28T03:51:03;20.95;;;8.98;;
20729;SDS011;10526;50.850;12.928;2023-02-28T03:55:34;20.95;;;9.75;;
20729;SDS011;10526;50.850;12.928;2023-02-28T04:00:07;20.88;;;9.50;;
20729;SDS011;10526;50.850;12.928;2023-02-28T04:04:35;19.67;;;9.70;;
20729;SDS011;10526;50.850;12.928;2023-02-28T04:08:58;22.20;;;9.93;;
20729;SDS011;10526;50.850;12.928;2023-02-28T04:13:21;21.60;;;10.63;;
20729;SDS011;10526;50.850;12.928;2023-02-28T04:17:43;40.72;;;21.00;;
20729;SDS011;10526;50.850;12.928;2023-02-28T04:22:05;19.92;;;10.25;;
20729;SDS011;10526;50.850;12.928;2023-02-28T04:26:36;19.92;;;10.20;;
20729;SDS011;10526;50.850;12.928;2023-02-28T04:30:59;34.05;;;17.05;;
20729;SDS011;10526;50.850;12.928;2023-02-28T04:35:24;24.38;;;11.32;;
20729;SDS011;10526;50.850;12.928;2023-02-28T04:39:47;21.42;;;12.00;;
20729;SDS011;10526;50.850;12.928;2023-02-28T04:44:09;23.20;;;12.68;;
20729;SDS011;10526;50.850;12.928;2023-02-28T04:48:32;25.83;;;14.43;;
20729;SDS011;10526;50.850;12.928;2023-02-28T04:52:57;23.70;;;13.25;;
20729;SDS011;10526;50.850;12.928;2023-02-28T04:57:19;23.73;;;13.27;;
20729;SDS011;10526;50.850;12.928;2023-02-28T05:01:41;26.83;;;15.10;;
20729;SDS011;10526;50.850;12.928;2023-02-28T05:06:08;29.42;;;14.77;;
20729;SDS011;10526;50.850;12.928;2023-02-28T05:10:32;28.95;;;14.82;;
20729;SDS011;10526;50.850;12.928;2023-02-28T05:14:55;29.17;;;15.35;;
20729;SDS011;10526;50.850;12.928;2023-02-28T05:19:17;26.85;;;16.20;;
20729;SDS011;10526;50.850;12.928;2023-02-28T05:23:40;29.35;;;15.30;;
20729;SDS011;10526;50.850;12.928;2023-02-28T05:28:02;27.55;;;16.50;;
20729;SDS011;10526;50.850;12.928;2023-02-28T05:32:25;30.23;;;16.85;;
20729;SDS011;10526;50.850;12.928;2023-02-28T05:36:47;32.67;;;19.58;;
20729;SDS011;10526;50.850;12.928;2023-02-28T05:41:09;31.15;;;17.38;;
20729;SDS011;10526;50.850;12.928;2023-02-28T05:45:32;30.08;;;16.80;;
20729;SDS011;10526;50.850;12.928;2023-02-28T05:49:54;31.90;;;17.23;;
20729;SDS011;10526;50.850;12.928;2023-02-28T05:54:17;28.30;;;15.85;;
20729;SDS011;10526;50.850;12.928;2023-02-28T05:58:39;29.35;;;14.85;;
20729;SDS011;10526;50.850;12.928;2023-02-28T06:03:01;28.45;;;15.77;;
20729;SDS011;10526;50.850;12.928;2023-02-28T06:07:25;28.90;;;15.88;;
20729;SDS011;10526;50.850;12.928;2023-02-28T06:11:47;27.48;;;15.00;;
20729;SDS011;10526;50.850;12.928;2023-02-28T06:16:10;34.17;;;18.40;;
20729;SDS011;10526;50.850;12.928;2023-02-28T06:20:33;34.60;;;19.95;;
20729;SDS011;10526;50.850;12.928;2023-02-28T06:24:55;31.55;;;17.45;;
20729;SDS011;10526;50.850;12.928;2023-02-28T06:29:18;42.78;;;22.33;;
20729;SDS011;10526;50.850;12.928;2023-02-28T06:33:40;41.25;;;23.27;;
20729;SDS011;10526;50.850;12.928;2023-02-28T06:38:03;25.13;;;14.68;;
20729;SDS011;10526;50.850;12.928;2023-02-28T06:42:26;18.13;;;8.48;;
20729;SDS011;10526;50.850;12.928;2023-02-28T06:46:49;19.20;;;7.65;;
20729;SDS011;10526;50.850;12.928;2023-02-28T06:51:21;17.52;;;8.05;;
20729;SDS011;10526;50.850;12.928;2023-02-28T06:55:43;18.60;;;8.27;;
20729;SDS011;10526;50.850;12.928;2023-02-28T07:00:07;17.27;;;7.82;;
20729;SDS011;10526;50.850;12.928;2023-02-28T07:04:30;17.10;;;8.05;;
20729;SDS011;10526;50.850;12.928;2023-02-28T07:08:53;16.23;;;7.82;;
20729;SDS011;10526;50.850;12.928;2023-02-28T07:13:15;17.58;;;8.55;;
20729;SDS011;10526;50.850;12.928;2023-02-28T07:17:37;19.27;;;8.50;;
20729;SDS011;10526;50.850;12.928;2023-02-28T07:21:59;16.73;;;8.13;;
20729;SDS011;10526;50.850;12.928;2023-02-28T07:26:23;16.80;;;8.48;;
20729;SDS011;10526;50.850;12.928;2023-02-28T07:30:46;18.13;;;9.13;;
20729;SDS011;10526;50.850;12.928;2023-02-28T07:35:09;17.02;;;8.65;;
20729;SDS011;10526;50.850;12.928;2023-02-28T07:39:31;18.65;;;9.23;;
20729;SDS011;10526;50.850;12.928;2023-02-28T07:43:53;19.25;;;9.27;;
20729;SDS011;10526;50.850;12.928;2023-02-28T07:48:16;17.50;;;9.05;;
20729;SDS011;10526;50.850;12.928;2023-02-28T07:52:39;17.38;;;9.05;;
20729;SDS011;10526;50.850;12.928;2023-02-28T07:57:02;17.52;;;9.15;;
20729;SDS011;10526;50.850;12.928;2023-02-28T08:01:24;16.08;;;8.35;;
20729;SDS011;10526;50.850;12.928;2023-02-28T08:05:46;18.98;;;9.13;;
20729;SDS011;10526;50.850;12.928;2023-02-28T08:10:09;16.25;;;8.70;;
20729;SDS011;10526;50.850;12.928;2023-02-28T08:14:31;16.42;;;7.95;;
20729;SDS011;10526;50.850;12.928;2023-02-28T08:18:54;19.80;;;8.43;;
20729;SDS011;10526;50.850;12.928;2023-02-28T08:23:16;15.45;;;7.93;;
20729;SDS011;10526;50.850;12.928;2023-02-28T08:27:38;17.23;;;7.82;;
20729;SDS011;10526;50.850;12.928;2023-02-28T08:32:00;31.83;;;17.48;;
20729;SDS011;10526;50.850;12.928;2023-02-28T08:36:22;17.65;;;8.43;;
20729;SDS011;10526;50.850;12.928;2023-02-28T08:40:46;16.95;;;8.32;;
20729;SDS011;10526;50.850;12.928;2023-02-28T08:45:08;16.40;;;7.03;;
20729;SDS011;10526;50.850;12.928;2023-02-28T08:49:30;15.68;;;7.10;;
20729;SDS011;10526;50.850;12.928;2023-02-28T08:53:53;16.70;;;7.45;;
20729;SDS011;10526;50.850;12.928;2023-02-28T08:58:24;13.88;;;6.70;;
20729;SDS011;10526;50.850;12.928;2023-02-28T09:02:46;13.18;;;5.82;;
20729;SDS011;10526;50.850;12.928;2023-02-28T09:07:09;13.80;;;6.22;;
20729;SDS011;10526;50.850;12.928;2023-02-28T09:11:31;15.38;;;6.25;;
20729;SDS011;10526;50.850;12.928;2023-02-28T09:15:54;15.40;;;6.00;;
20729;SDS011;10526;50.850;12.928;2023-02-28T09:20:20;15.32;;;6.68;;
20729;SDS011;10526;50.850;12.928;2023-02-28T09:24:42;13.23;;;6.20;;
20729;SDS011;10526;50.850;12.928;2023-02-28T09:29:05;15.40;;;6.80;;
20729;SDS011;10526;50.850;12.928;2023-02-28T09:33:27;14.88;;;6.70;;
20729;SDS011;10526;50.850;12.928;2023-02-28T09:37:50;14.60;;;6.35;;
20729;SDS011;10526;50.850;12.928;2023-02-28T09:42:17;14.45;;;5.65;;
20729;SDS011;10526;50.850;12.928;2023-02-28T09:46:47;14.07;;;6.50;;
20729;SDS011;10526;50.850;12.928;2023-02-28T09:55:55;16.25;;;6.53;;
20729;SDS011;10526;50.850;12.928;2023-02-28T10:00:22;12.48;;;5.35;;
20729;SDS011;10526;50.850;12.928;2023-02-28T10:04:55;14.68;;;6.38;;
20729;SDS011;10526;50.850;12.928;2023-02-28T10:09:23;13.65;;;5.28;;
20729;SDS011;10526;50.850;12.928;2023-02-28T10:18:28;14.82;;;5.75;;
20729;SDS011;10526;50.850;12.928;2023-02-28T10:23:34;13.13;;;5.68;;
20729;SDS011;10526;50.850;12.928;2023-02-28T10:28:11;17.95;;;5.72;;
20729;SDS011;10526;50.850;12.928;2023-02-28T10:32:36;15.35;;;6.70;;
20729;SDS011;10526;50.850;12.928;2023-02-28T10:37:01;15.02;;;7.03;;
20729;SDS011;10526;50.850;12.928;2023-02-28T10:41:29;13.73;;;6.20;;
20729;SDS011;10526;50.850;12.928;2023-02-28T10:50:37;17.23;;;7.43;;
20729;SDS011;10526;50.850;12.928;2023-02-28T10:55:22;15.15;;;6.82;;
20729;SDS011;10526;50.850;12.928;2023-02-28T10:59:50;15.07;;;6.43;;
20729;SDS011;10526;50.850;12.928;2023-02-28T11:04:23;15.32;;;6.90;;
20729;SDS011;10526;50.850;12.928;2023-02-28T11:09:02;14.60;;;6.65;;
20729;SDS011;10526;50.850;12.928;2023-02-28T11:13:45;12.15;;;5.20;;
20729;SDS011;10526;50.850;12.928;2023-02-28T11:22:37;15.70;;;6.03;;
20729;SDS011;10526;50.850;12.928;2023-02-28T11:27:04;15.13;;;6.20;;
20729;SDS011;10526;50.850;12.928;2023-02-28T11:31:26;16.85;;;6.95;;
20729;SDS011;10526;50.850;12.928;2023-02-28T11:35:51;14.93;;;6.63;;
20729;SDS011;10526;50.850;12.928;2023-02-28T11:40:22;16.52;;;6.60;;
20729;SDS011;10526;50.850;12.928;2023-02-28T11:45:38;13.57;;;5.95;;
20729;SDS011;10526;50.850;12.928;2023-02-28T11:55:40;14.43;;;6.22;;
20729;SDS011;10526;50.850;12.928;2023-02-28T12:05:34;14.73;;;6.82;;
20729;SDS011;10526;50.850;12.928;2023-02-28T12:11:06;15.38;;;6.97;;
20729;SDS011;10526;50.850;12.928;2023-02-28T12:34:09;24.92;;;7.82;;
20729;SDS011;10526;50.850;12.928;2023-02-28T12:38:40;15.23;;;6.80;;
20729;SDS011;10526;50.850;12.928;2023-02-28T12:43:17;14.85;;;7.47;;
20729;SDS011;10526;50.850;12.928;2023-02-28T12:47:42;17.20;;;7.80;;
20729;SDS011;10526;50.850;12.928;2023-02-28T12:52:07;17.13;;;7.63;;
20729;SDS011;10526;50.850;12.928;2023-02-28T13:11:28;17.42;;;9.32;;
20729;SDS011;10526;50.850;12.928;2023-02-28T13:16:02;20.70;;;9.57;;
20729;SDS011;10526;50.850;12.928;2023-02-28T13:20:32;17.73;;;9.23;;
20729;SDS011;10526;50.850;12.928;2023-02-28T13:24:57;21.13;;;9.75;;
20729;SDS011;10526;50.850;12.928;2023-02-28T13:29:41;20.15;;;9.50;;
20729;SDS011;10526;50.850;12.928;2023-02-28T13:34:11;20.58;;;9.80;;
20729;SDS011;10526;50.850;12.928;2023-02-28T13:38:40;17.77;;;9.13;;
20729;SDS011;10526;50.850;12.928;2023-02-28T13:43:24;20.92;;;9.65;;
20729;SDS011;10526;50.850;12.928;2023-02-28T13:48:30;19.88;;;9.85;;
20729;SDS011;10526;50.850;12.928;2023-02-28T13:57:49;20.52;;;9.40;;
20729;SDS011;10526;50.850;12.928;2023-02-28T14:02:43;20.27;;;10.27;;
20729;SDS011;10526;50.850;12.928;2023-02-28T14:07:39;21.02;;;10.88;;
20729;SDS011;10526;50.850;12.928;2023-02-28T14:17:19;21.63;;;10.93;;
20729;SDS011;10526;50.850;12.928;2023-02-28T14:37:27;19.45;;;9.55;;
20729;SDS011;10526;50.850;12.928;2023-02-28T14:41:54;21.17;;;10.55;;
20729;SDS011;10526;50.850;12.928;2023-02-28T14:46:16;23.15;;;10.20;;
20729;SDS011;10526;50.850;12.928;2023-02-28T14:50:40;18.73;;;9.02;;
20729;SDS011;10526;50.850;12.928;2023-02-28T14:55:14;24.08;;;10.48;;
20729;SDS011;10526;50.850;12.928;2023-02-28T14:59:40;19.65;;;9.10;;
20729;SDS011;10526;50.850;12.928;2023-02-28T15:04:03;20.35;;;10.45;;
20729;SDS011;10526;50.850;12.928;2023-02-28T15:08:27;19.00;;;9.75;;
20729;SDS011;10526;50.850;12.928;2023-02-28T15:17:21;21.90;;;11.32;;
20729;SDS011;10526;50.850;12.928;2023-02-28T15:21:47;20.48;;;10.50;;
20729;SDS011;10526;50.850;12.928;2023-02-28T15:26:18;21.92;;;10.55;;
20729;SDS011;10526;50.850;12.928;2023-02-28T15:30:51;20.75;;;11.02;;
20729;SDS011;10526;50.850;12.928;2023-02-28T15:39:45;20.98;;;11.43;;
20729;SDS011;10526;50.850;12.928;2023-02-28T15:53:17;25.08;;;12.85;;
20729;SDS011;10526;50.850;12.928;2023-02-28T15:57:53;29.58;;;12.98;;
20729;SDS011;10526;50.850;12.928;2023-02-28T16:02:20;22.67;;;13.07;;
20729;SDS011;10526;50.850;12.928;2023-02-28T16:11:20;24.73;;;12.65;;
20729;SDS011;10526;50.850;12.928;2023-02-28T16:15:43;25.42;;;13.02;;
20729;SDS011;10526;50.850;12.928;2023-02-28T16:20:11;25.10;;;13.00;;
20729;SDS011;10526;50.850;12.928;2023-02-28T16:24:36;26.33;;;13.85;;
20729;SDS011;10526;50.850;12.928;2023-02-28T16:29:00;24.98;;;14.07;;
20729;SDS011;10526;50.850;12.928;2023-02-28T16:33:23;23.73;;;13.00;;
20729;SDS011;10526;50.850;12.928;2023-02-28T16:37:46;27.52;;;13.25;;
20729;SDS011;10526;50.850;12.928;2023-02-28T16:42:27;25.35;;;13.65;;
20729;SDS011;10526;50.850;12.928;2023-02-28T16:46:49;25.85;;;13.07;;
20729;SDS011;10526;50.850;12.928;2023-02-28T16:51:13;30.52;;;14.15;;
20729;SDS011;10526;50.850;12.928;2023-02-28T16:55:36;29.90;;;14.30;;
20729;SDS011;10526;50.850;12.928;2023-02-28T16:59:59;33.05;;;16.40;;
20729;SDS011;10526;50.850;12.928;2023-02-28T17:04:21;26.50;;;14.27;;
20729;SDS011;10526;50.850;12.928;2023-02-28T17:08:43;30.15;;;15.10;;
20729;SDS011;10526;50.850;12.928;2023-02-28T17:13:05;29.40;;;15.52;;
20729;SDS011;10526;50.850;12.928;2023-02-28T17:17:35;27.85;;;15.48;;
20729;SDS011;10526;50.850;12.928;2023-02-28T17:21:57;24.95;;;14.57;;
20729;SDS011;10526;50.850;12.928;2023-02-28T17:26:19;31.23;;;16.15;;
20729;SDS011;10526;50.850;12.928;2023-02-28T17:30:45;31.05;;;15.15;;
20729;SDS011;10526;50.850;12.928;2023-02-28T17:35:09;30.08;;;14.43;;
20729;SDS011;10526;50.850;12.928;2023-02-28T17:39:32;28.50;;;14.85;;
20729;SDS011;10526;50.850;12.928;2023-02-28T17:43:54;30.30;;;15.25;;
20729;SDS011;10526;50.850;12.928;2023-02-28T17:48:17;29.80;;;14.90;;
20729;SDS011;10526;50.850;12.928;2023-02-28T17:52:40;29.92;;;16.65;;
20729;SDS011;10526;50.850;12.928;2023-02-28T17:57:03;31.75;;;17.00;;
20729;SDS011;10526;50.850;12.928;2023-02-28T18:01:25;36.45;;;16.30;;
20729;SDS011;10526;50.850;12.928;2023-02-28T18:05:47;34.17;;;16.70;;
20729;SDS011;10526;50.850;12.928;2023-02-28T18:10:14;35.10;;;18.38;;
20729;SDS011;10526;50.850;12.928;2023-02-28T18:14:40;29.63;;;15.95;;
20729;SDS011;10526;50.850;12.928;2023-02-28T18:19:03;32.47;;;17.23;;
20729;SDS011;10526;50.850;12.928;2023-02-28T18:23:27;32.13;;;16.50;;
20729;SDS011;10526;50.850;12.928;2023-02-28T18:27:49;31.55;;;15.77;;
20729;SDS011;10526;50.850;12.928;2023-02-28T18:32:18;32.15;;;17.52;;
20729;SDS011;10526;50.850;12.928;2023-02-28T18:36:40;33.72;;;17.52;;
20729;SDS011;10526;50.850;12.928;2023-02-28T18:41:03;35.20;;;16.80;;
20729;SDS011;10526;50.850;12.928;2023-02-28T18:45:27;32.38;;;18.15;;
20729;SDS011;10526;50.850;12.928;2023-02-28T18:49:49;33.58;;;17.05;;
20729;SDS011;10526;50.850;12.928;2023-02-28T18:54:12;35.42;;;17.35;;
20729;SDS011;10526;50.850;12.928;2023-02-28T18:58:35;28.35;;;16.55;;
20729;SDS011;10526;50.850;12.928;2023-02-28T19:02:57;32.15;;;16.63;;
20729;SDS011;10526;50.850;12.928;2023-02-28T19:07:19;31.25;;;16.98;;
20729;SDS011;10526;50.850;12.928;2023-02-28T19:11:41;30.52;;;16.35;;
20729;SDS011;10526;50.850;12.928;2023-02-28T19:16:04;33.38;;;17.73;;
20729;SDS011;10526;50.850;12.928;2023-02-28T19:20:28;38.13;;;18.10;;
20729;SDS011;10526;50.850;12.928;2023-02-28T19:25:00;33.20;;;18.35;;
20729;SDS011;10526;50.850;12.928;2023-02-28T19:35:27;33.30;;;17.67;;
20729;SDS011;10526;50.850;12.928;2023-02-28T19:40:13;35.45;;;18.63;;
20729;SDS011;10526;50.850;12.928;2023-02-28T19:45:45;32.95;;;18.30;;
20729;SDS011;10526;50.850;12.928;2023-02-28T19:56:00;39.05;;;19.00;;
20729;SDS011;10526;50.850;12.928;2023-02-28T20:06:43;36.17;;;18.25;;
20729;SDS011;10526;50.850;12.928;2023-02-28T20:12:15;33.90;;;18.98;;
20729;SDS011;10526;50.850;12.928;2023-02-28T20:17:24;37.33;;;18.55;;
20729;SDS011;10526;50.850;12.928;2023-02-28T20:22:54;40.00;;;19.92;;
20729;SDS011;10526;50.850;12.928;2023-02-28T20:28:14;37.70;;;19.60;;
20729;SDS011;10526;50.850;12.928;2023-02-28T20:33:26;40.40;;;20.17;;
20729;SDS011;10526;50.850;12.928;2023-02-28T20:37:49;46.90;;;22.17;;
20729;SDS011;10526;50.850;12.928;2023-02-28T20:42:13;44.83;;;22.63;;
20729;SDS011;10526;50.850;12.928;2023-02-28T20:46:35;40.25;;;21.40;;
20729;SDS011;10526;50.850;12.928;2023-02-28T20:50:58;47.33;;;23.85;;
20729;SDS011;10526;50.850;12.928;2023-02-28T20:55:20;44.65;;;20.80;;
20729;SDS011;10526;50.850;12.928;2023-02-28T20:59:42;45.60;;;22.27;;
20729;SDS011;10526;50.850;12.928;2023-02-28T21:04:05;40.65;;;22.02;;
20729;SDS011;10526;50.850;12.928;2023-02-28T21:08:28;41.17;;;21.38;;
20729;SDS011;10526;50.850;12.928;2023-02-28T21:12:50;42.92;;;21.40;;
20729;SDS011;10526;50.850;12.928;2023-02-28T21:17:18;44.50;;;22.88;;
20729;SDS011;10526;50.850;12.928;2023-02-28T21:21:46;38.84;;;22.56;;
20729;SDS011;10526;50.850;12.928;2023-02-28T21:26:09;43.28;;;23.77;;
20729;SDS011;10526;50.850;12.928;2023-02-28T21:30:35;47.80;;;25.88;;
20729;SDS011;10526;50.850;12.928;2023-02-28T21:34:58;43.33;;;23.17;;
20729;SDS011;10526;50.850;12.928;2023-02-28T21:39:21;47.53;;;24.55;;
20729;SDS011;10526;50.850;12.928;2023-02-28T21:43:49;54.90;;;25.55;;
20729;SDS011;10526;50.850;12.928;2023-02-28T21:48:12;51.20;;;25.05;;
20729;SDS011;10526;50.850;12.928;2023-02-28T21:52:34;49.08;;;25.63;;
20729;SDS011;10526;50.850;12.928;2023-02-28T21:56:56;51.58;;;25.05;;
20729;SDS011;10526;50.850;12.928;2023-02-28T22:01:20;50.10;;;26.08;;
20729;SDS011;10526;50.850;12.928;2023-02-28T22:05:42;47.35;;;25.92;;
20729;SDS011;10526;50.850;12.928;2023-02-28T22:10:04;49.92;;;25.05;;
20729;SDS011;10526;50.850;12.928;2023-02-28T22:14:26;54.22;;;26.38;;
20729;SDS011;10526;50.850;12.928;2023-02-28T22:18:49;47.53;;;24.65;;
20729;SDS011;10526;50.850;12.928;2023-02-28T22:23:11;46.03;;;24.63;;
20729;SDS011;10526;50.850;12.928;2023-02-28T22:27:33;48.42;;;25.25;;
20729;SDS011;10526;50.850;12.928;2023-02-28T22:31:55;59.28;;;29.88;;
20729;SDS011;10526;50.850;12.928;2023-02-28T22:36:18;51.70;;;26.33;;
20729;SDS011;10526;50.850;12.928;2023-02-28T22:40:41;45.47;;;24.70;;
20729;SDS011;10526;50.850;12.928;2023-02-28T22:45:03;46.90;;;24.42;;
20729;SDS011;10526;50.850;12.928;2023-02-28T22:49:26;49.58;;;24.73;;
20729;SDS011;10526;50.850;12.928;2023-02-28T22:53:48;46.90;;;25.60;;
20729;SDS011;10526;50.850;12.928;2023-02-28T22:58:12;51.15;;;24.95;;
20729;SDS011;10526;50.850;12.928;2023-02-28T23:02:34;50.67;;;24.85;;
20729;SDS011;10526;50.850;12.928;2023-02-28T23:06:57;42.83;;;23.80;;
20729;SDS011;10526;50.850;12.928;2023-02-28T23:11:21;49.35;;;25.23;;
20729;SDS011;10526;50.850;12.928;2023-02-28T23:15:49;48.72;;;25.13;;
20729;SDS011;10526;50.850;12.928;2023-02-28T23:20:13;49.65;;;25.88;;
20729;SDS011;10526;50.850;12.928;2023-02-28T23:24:37;49.38;;;22.95;;
20729;SDS011;10526;50.850;12.928;2023-02-28T23:28:59;48.33;;;24.58;;
20729;SDS011;10526;50.850;12.928;2023-02-28T23:33:21;50.08;;;26.58;;
20729;SDS011;10526;50.850;12.928;2023-02-28T23:37:43;48.45;;;25.35;;
20729;SDS011;10526;50.850;12.928;2023-02-28T23:42:06;50.92;;;26.80;;
20729;SDS011;10526;50.850;12.928;2023-02-28T23:46:28;52.53;;;26.42;;
20729;SDS011;10526;50.850;12.928;2023-02-28T23:50:50;50.83;;;26.80;;
20729;SDS011;10526;50.850;12.928;2023-02-28T23:55:12;57.70;;;27.23;;
20729;SDS011;10526;50.850;12.928;2023-02-28T23:59:34;54.33;;;29.05;;
